createdAt,value
2023-01-25T07:26:22.115Z,22.70
2023-01-25T07:27:21.993Z,24.10
2023-01-25T07:28:30.666Z,28.20
2023-01-25T07:29:22.006Z,30.00
2023-01-25T07:30:21.928Z,29.50
2023-01-25T07:31:21.959Z,29.10
2023-01-25T07:32:21.921Z,28.80
2023-01-25T07:33:22.021Z,28.70
2023-01-25T07:34:21.916Z,29.90
2023-01-25T07:35:21.899Z,29.10
2023-01-25T07:36:21.901Z,28.30
2023-01-25T07:37:21.973Z,28.70
2023-01-25T07:38:21.823Z,28.60
2023-01-25T07:39:21.911Z,27.40
2023-01-25T07:40:21.777Z,28.00
2023-01-25T07:41:21.803Z,30.10
2023-01-25T07:42:21.809Z,29.80
2023-01-25T07:43:21.863Z,28.30
2023-01-25T07:44:21.775Z,28.30
2023-01-25T07:45:21.789Z,29.00
2023-01-25T07:46:21.721Z,29.10
2023-01-25T07:47:21.710Z,30.80
2023-01-25T07:48:21.872Z,33.10
2023-01-25T07:49:21.735Z,31.20
2023-01-25T07:50:21.787Z,36.20
2023-01-25T07:51:21.638Z,30.80
2023-01-25T07:52:21.636Z,31.50
2023-01-25T07:53:21.722Z,32.00
2023-01-25T07:54:21.671Z,34.10
2023-01-25T07:55:21.698Z,31.30
2023-01-25T07:56:21.583Z,34.00
2023-01-25T07:57:21.629Z,35.30
2023-01-25T07:58:21.554Z,33.50
2023-01-25T07:59:24.833Z,30.00
2023-01-25T08:00:23.341Z,29.20
2023-01-25T08:01:21.587Z,28.80
2023-01-25T08:02:21.579Z,29.50
2023-01-25T08:03:21.533Z,29.60
2023-01-25T08:04:21.537Z,29.40
2023-01-25T08:05:21.491Z,29.90
2023-01-25T08:06:21.463Z,30.90
2023-01-25T08:07:21.520Z,30.00
2023-01-25T08:08:21.526Z,31.80
2023-01-25T08:09:21.449Z,31.80
2023-01-25T08:10:21.419Z,31.50
2023-01-25T08:11:21.412Z,31.60
2023-01-25T08:12:21.423Z,31.30
2023-01-25T08:13:21.475Z,31.00
2023-01-25T08:14:21.389Z,31.40
2023-01-25T08:15:21.344Z,32.10
2023-01-25T08:16:21.365Z,32.10
2023-01-25T08:17:21.456Z,31.90
2023-01-25T08:18:21.302Z,32.50
2023-01-25T08:19:22.246Z,32.50
2023-01-25T08:20:21.265Z,32.10
2023-01-25T08:21:21.273Z,32.20
2023-01-25T08:22:21.284Z,33.70
2023-01-25T08:23:21.240Z,32.70
2023-01-25T08:24:22.482Z,34.40
2023-01-25T08:25:21.287Z,32.90
2023-01-25T08:26:21.249Z,32.00
2023-01-25T08:27:21.241Z,32.30
2023-01-25T08:28:21.207Z,32.50
2023-01-25T08:29:21.220Z,32.50
2023-01-25T08:30:21.169Z,31.90
2023-01-25T08:31:21.274Z,32.80
2023-01-25T08:32:21.113Z,32.00
2023-01-25T08:33:21.150Z,32.70
2023-01-25T08:34:21.146Z,32.50
2023-01-25T08:35:21.080Z,32.30
2023-01-25T08:36:21.079Z,31.50
2023-01-25T08:37:21.049Z,33.10
2023-01-25T08:38:21.063Z,32.20
2023-01-25T08:39:21.060Z,31.70
2023-01-25T08:40:21.054Z,32.20
2023-01-25T08:41:20.996Z,33.30
2023-01-25T08:42:21.599Z,33.10
2023-01-25T08:43:20.968Z,33.60
2023-01-25T08:44:21.052Z,32.90
2023-01-25T08:45:20.990Z,34.40
2023-01-25T08:46:20.995Z,33.00
2023-01-25T08:47:20.936Z,34.20
2023-01-25T08:48:20.934Z,33.00
2023-01-25T08:49:20.950Z,33.40
2023-01-25T08:50:20.938Z,33.40
2023-01-25T08:51:20.950Z,34.90
2023-01-25T08:52:21.969Z,35.10
2023-01-25T08:53:21.003Z,33.50
2023-01-25T08:54:20.946Z,34.20
2023-01-25T08:55:29.465Z,34.00
2023-01-25T08:56:36.498Z,34.20
2023-01-25T08:57:20.857Z,33.90
2023-01-25T08:58:20.807Z,35.30
2023-01-25T08:59:20.823Z,34.00
2023-01-25T09:00:20.771Z,33.20
2023-01-25T09:01:20.740Z,34.30
2023-01-25T09:02:20.722Z,34.20
2023-01-25T09:03:20.753Z,34.70
2023-01-25T09:04:20.722Z,35.10
2023-01-25T09:05:20.771Z,32.90
2023-01-25T09:06:20.680Z,34.70
2023-01-25T09:07:20.681Z,34.40
2023-01-25T09:08:20.636Z,33.90
2023-01-25T09:09:20.665Z,33.00
2023-01-25T09:10:20.676Z,33.80
2023-01-25T09:11:20.679Z,33.40
2023-01-25T09:12:20.656Z,32.10
2023-01-25T09:13:20.624Z,34.40
2023-01-25T09:14:20.641Z,34.80
2023-01-25T09:15:20.594Z,33.50
2023-01-25T09:16:20.581Z,34.50
2023-01-25T09:17:20.569Z,32.20
2023-01-25T09:18:20.507Z,33.40
2023-01-25T09:19:20.535Z,31.50
2023-01-25T09:20:20.609Z,33.60
2023-01-25T09:21:20.528Z,33.00
2023-01-25T09:22:20.505Z,34.50
2023-01-25T09:23:20.461Z,32.70
2023-01-25T09:24:20.545Z,32.50
2023-01-25T09:25:20.448Z,33.70
2023-01-25T09:26:20.515Z,33.80
2023-01-25T09:27:20.458Z,35.40
2023-01-25T09:28:20.389Z,34.90
2023-01-25T09:29:20.409Z,34.80
2023-01-25T09:30:21.210Z,35.40
2023-01-25T09:31:22.967Z,35.40
2023-01-25T09:32:20.387Z,37.10
2023-01-25T09:33:20.320Z,37.10
2023-01-25T09:34:20.325Z,35.80
2023-01-25T09:35:20.306Z,36.40
2023-01-25T09:36:20.503Z,36.90
2023-01-25T09:37:20.276Z,37.10
2023-01-25T09:38:25.416Z,38.70
2023-01-25T09:39:20.285Z,38.90
2023-01-25T09:40:20.258Z,37.90
2023-01-25T09:41:20.250Z,39.70
2023-01-25T09:42:21.343Z,40.30
2023-01-25T09:43:20.202Z,40.50
2023-01-25T09:44:20.181Z,41.70
2023-01-25T09:45:20.205Z,41.30
2023-01-25T09:46:20.275Z,41.00
2023-01-25T09:47:20.148Z,40.00
2023-01-25T09:48:20.135Z,40.30
2023-01-25T09:49:20.112Z,40.10
2023-01-25T09:50:20.126Z,41.40
2023-01-25T09:51:20.139Z,41.10
2023-01-25T09:52:20.124Z,42.60
2023-01-25T09:53:20.058Z,39.20
2023-01-25T09:54:20.104Z,39.30
2023-01-25T09:55:20.066Z,40.50
2023-01-25T09:56:20.045Z,38.50
2023-01-25T09:57:20.079Z,38.30
2023-01-25T09:58:19.989Z,38.70
2023-01-25T09:59:20.084Z,39.60
2023-01-25T10:00:19.968Z,38.00
2023-01-25T10:01:32.840Z,36.90
2023-01-25T10:02:21.026Z,37.80
2023-01-25T10:03:19.918Z,38.00
2023-01-25T10:04:19.923Z,38.10
2023-01-25T10:05:19.944Z,37.60
2023-01-25T10:06:19.876Z,38.10
2023-01-25T10:07:19.887Z,39.50
2023-01-25T10:08:19.890Z,37.80
2023-01-25T10:09:19.860Z,37.60
2023-01-25T10:10:19.830Z,37.80
2023-01-25T10:11:19.829Z,37.90
2023-01-25T10:12:19.865Z,38.50
2023-01-25T10:13:19.800Z,38.60
2023-01-25T10:14:19.889Z,40.00
2023-01-25T10:15:25.632Z,39.90
2023-01-25T10:16:25.562Z,39.80
2023-01-25T10:17:20.788Z,40.80
2023-01-25T10:18:19.724Z,39.00
2023-01-25T10:19:19.761Z,38.80
2023-01-25T10:20:19.742Z,39.20
2023-01-25T10:21:19.743Z,39.70
2023-01-25T10:22:19.682Z,41.80
2023-01-25T10:23:19.721Z,40.90
2023-01-25T10:24:19.709Z,41.10
2023-01-25T10:25:19.638Z,39.90
2023-01-25T10:26:19.619Z,39.40
2023-01-25T10:27:19.594Z,39.70
2023-01-25T10:28:19.620Z,39.10
2023-01-25T10:29:19.745Z,39.50
2023-01-25T10:30:19.562Z,40.40
2023-01-25T10:31:19.617Z,38.20
2023-01-25T10:32:19.610Z,41.40
2023-01-25T10:33:19.564Z,39.80
2023-01-25T10:34:19.555Z,40.20
2023-01-25T10:35:33.174Z,40.50
2023-01-25T10:36:20.567Z,39.70
2023-01-25T10:37:19.483Z,40.10
2023-01-25T10:38:19.490Z,39.40
2023-01-25T10:39:19.499Z,41.40
2023-01-25T10:40:21.831Z,40.60
2023-01-25T10:41:27.582Z,41.80
2023-01-25T10:42:19.489Z,40.10
2023-01-25T10:43:19.401Z,42.10
2023-01-25T10:44:19.395Z,42.60
2023-01-25T10:45:19.351Z,41.70
2023-01-25T10:46:19.413Z,40.30
2023-01-25T10:47:19.386Z,41.20
2023-01-25T10:48:19.344Z,41.20
2023-01-25T10:49:19.453Z,41.70
2023-01-25T10:50:27.111Z,41.70
2023-01-25T10:51:19.371Z,40.40
2023-01-25T10:52:19.333Z,41.30
2023-01-25T10:53:19.291Z,41.80
2023-01-25T10:54:19.320Z,39.80
2023-01-25T10:55:19.331Z,41.80
2023-01-25T10:56:19.231Z,42.60
2023-01-25T10:57:19.238Z,41.50
2023-01-25T10:58:19.189Z,42.00
2023-01-25T10:59:19.242Z,41.90
2023-01-25T11:00:19.197Z,41.90
2023-01-25T11:01:19.245Z,43.00
2023-01-25T11:02:19.185Z,39.50
2023-01-25T11:03:19.124Z,40.20
2023-01-25T11:04:19.150Z,39.50
2023-01-25T11:05:19.159Z,40.40
2023-01-25T11:06:19.084Z,38.70
2023-01-25T11:07:19.133Z,40.00
2023-01-25T11:08:19.212Z,39.60
2023-01-25T11:09:19.109Z,40.00
2023-01-25T11:10:19.076Z,40.20
2023-01-25T11:11:19.094Z,40.10
2023-01-25T11:12:19.128Z,40.10
2023-01-25T11:13:19.003Z,41.90
2023-01-25T11:14:18.993Z,40.10
2023-01-25T11:15:18.982Z,41.90
2023-01-25T11:16:19.002Z,40.60
2023-01-25T11:17:18.949Z,40.80
2023-01-25T11:18:18.938Z,41.30
2023-01-25T11:19:18.972Z,41.00
2023-01-25T11:20:18.964Z,41.80
2023-01-25T11:21:18.906Z,40.90
2023-01-25T11:22:18.869Z,42.20
2023-01-25T11:23:18.903Z,43.60
2023-01-25T11:24:18.876Z,40.60
2023-01-25T11:25:22.234Z,40.60
2023-01-25T11:26:18.912Z,41.00
2023-01-25T11:27:18.832Z,42.10
2023-01-25T11:28:18.841Z,40.20
2023-01-25T11:29:18.827Z,41.80
2023-01-25T11:30:18.770Z,40.70
2023-01-25T11:31:18.894Z,41.70
2023-01-25T11:32:18.792Z,41.00
2023-01-25T11:33:18.749Z,41.40
2023-01-25T11:35:33.948Z,41.50
2023-01-25T11:36:31.290Z,41.00
2023-01-25T11:37:30.758Z,41.50
2023-01-25T11:38:31.254Z,42.50
2023-01-25T11:39:30.916Z,40.20
2023-01-25T11:40:30.826Z,40.90
2023-01-25T11:41:30.693Z,39.20
2023-01-25T11:42:30.779Z,40.10
2023-01-25T11:43:30.856Z,39.00
2023-01-25T11:44:30.760Z,39.10
2023-01-25T11:45:30.764Z,40.20
2023-01-25T11:46:30.849Z,39.40
2023-01-25T11:47:30.814Z,38.70
2023-01-25T11:48:30.679Z,38.90
2023-01-25T11:49:30.591Z,37.30
2023-01-25T11:50:30.485Z,38.50
2023-01-25T11:51:30.528Z,38.90
2023-01-25T11:52:30.541Z,39.50
2023-01-25T11:53:30.798Z,40.30
2023-01-25T11:54:30.585Z,39.10
2023-01-25T11:55:30.524Z,39.40
2023-01-25T11:56:30.458Z,39.70
2023-01-25T11:57:30.429Z,41.10
2023-01-25T11:58:30.387Z,39.50
2023-01-25T11:59:30.464Z,40.30
2023-01-25T12:00:30.381Z,39.10
2023-01-25T12:01:30.375Z,40.00
2023-01-25T12:02:30.344Z,40.50
2023-01-25T12:03:30.422Z,40.50
2023-01-25T12:04:30.336Z,41.20
2023-01-25T12:05:30.295Z,41.20
2023-01-25T12:06:30.389Z,39.40
2023-01-25T12:07:30.234Z,38.40
2023-01-25T12:08:32.857Z,40.30
2023-01-25T12:09:30.265Z,39.40
2023-01-25T12:10:30.199Z,39.20
2023-01-25T12:11:30.223Z,39.70
2023-01-25T12:12:30.180Z,38.80
2023-01-25T12:13:30.193Z,39.30
2023-01-25T12:14:30.194Z,41.00
2023-01-25T12:15:30.146Z,42.20
2023-01-25T12:16:30.148Z,40.80
2023-01-25T12:17:30.118Z,40.70
2023-01-25T12:18:30.153Z,40.40
2023-01-25T12:19:30.095Z,39.80
2023-01-25T12:20:30.129Z,40.90
2023-01-25T12:21:31.778Z,39.40
2023-01-25T12:22:30.076Z,39.80
2023-01-25T12:23:30.077Z,40.50
2023-01-25T12:24:30.030Z,39.20
2023-01-25T12:25:37.527Z,40.40
2023-01-25T12:26:30.023Z,40.60
2023-01-25T12:27:29.970Z,39.70
2023-01-25T12:28:29.959Z,41.20
2023-01-25T12:29:29.953Z,39.80
2023-01-25T12:30:30.051Z,39.10
2023-01-25T12:31:29.968Z,40.00
2023-01-25T12:32:29.921Z,40.00
2023-01-25T12:33:29.885Z,39.90
2023-01-25T12:34:29.930Z,39.90
2023-01-25T12:35:30.601Z,40.20
2023-01-25T12:36:29.871Z,40.20
2023-01-25T12:37:29.834Z,40.70
2023-01-25T12:38:29.907Z,41.60
2023-01-25T12:39:29.849Z,39.20
2023-01-25T12:40:30.097Z,40.50
2023-01-25T12:41:29.846Z,40.00
2023-01-25T12:42:29.798Z,41.00
2023-01-25T12:43:29.769Z,40.10
2023-01-25T12:44:29.778Z,42.50
2023-01-25T12:45:29.771Z,41.30
2023-01-25T12:46:29.881Z,40.50
2023-01-25T12:47:29.824Z,40.20
2023-01-25T12:48:29.700Z,41.50
2023-01-25T12:49:29.700Z,41.70
2023-01-25T12:50:29.679Z,40.20
2023-01-25T12:51:29.722Z,39.40
2023-01-25T12:52:29.821Z,40.40
2023-01-25T12:53:29.637Z,40.70
2023-01-25T12:54:29.630Z,40.70
2023-01-25T12:55:29.688Z,40.00
2023-01-25T12:56:29.628Z,39.50
2023-01-25T12:57:30.056Z,40.90
2023-01-25T12:58:37.822Z,40.30
2023-01-25T12:59:30.563Z,39.10
2023-01-25T13:00:31.253Z,41.70
2023-01-25T13:01:29.556Z,40.10
2023-01-25T13:02:29.515Z,40.60
2023-01-25T13:03:29.521Z,42.10
2023-01-25T13:04:29.516Z,41.00
2023-01-25T13:05:29.487Z,39.50
2023-01-25T13:06:29.522Z,40.20
2023-01-25T13:07:29.482Z,40.50
2023-01-25T13:08:32.054Z,39.70
2023-01-25T13:09:29.451Z,40.00
2023-01-25T13:10:29.472Z,39.50
2023-01-25T13:11:29.443Z,39.60
2023-01-25T13:12:29.415Z,40.00
2023-01-25T13:13:29.382Z,40.70
2023-01-25T13:14:29.360Z,39.90
2023-01-25T13:15:36.868Z,38.70
2023-01-25T13:16:29.367Z,39.10
2023-01-25T13:17:29.326Z,37.40
2023-01-25T13:18:29.302Z,37.30
2023-01-25T13:19:29.330Z,35.80
2023-01-25T13:20:29.303Z,36.30
2023-01-25T13:21:29.266Z,35.40
2023-01-25T13:22:29.259Z,36.00
2023-01-25T13:23:29.243Z,37.20
2023-01-25T13:24:29.263Z,37.70
2023-01-25T13:25:29.208Z,37.40
2023-01-25T13:26:29.216Z,37.50
2023-01-25T13:27:29.220Z,36.60
2023-01-25T13:28:29.167Z,36.80
2023-01-25T13:29:29.167Z,37.60
2023-01-25T13:30:29.171Z,37.60
2023-01-25T13:31:31.381Z,37.50
2023-01-25T13:32:30.217Z,36.20
2023-01-25T13:33:29.102Z,37.30
2023-01-25T13:34:29.163Z,36.20
2023-01-25T13:35:29.121Z,37.20
2023-01-25T13:36:29.076Z,38.00
2023-01-25T13:37:29.109Z,38.20
2023-01-25T13:38:29.071Z,37.50
2023-01-25T13:39:29.042Z,35.20
2023-01-25T13:40:29.021Z,36.30
2023-01-25T13:41:30.621Z,36.40
2023-01-25T13:42:29.000Z,36.20
2023-01-25T13:43:29.001Z,36.60
2023-01-25T13:44:28.965Z,36.90
2023-01-25T13:45:29.273Z,36.20
2023-01-25T13:46:28.951Z,36.90
2023-01-25T13:47:28.959Z,38.30
2023-01-25T13:48:28.931Z,37.00
2023-01-25T13:49:28.910Z,36.70
2023-01-25T13:50:29.025Z,36.60
2023-01-25T13:51:28.889Z,37.80
2023-01-25T13:52:28.872Z,33.80
2023-01-25T13:53:28.863Z,34.10
2023-01-25T13:54:28.877Z,34.60
2023-01-25T13:55:28.850Z,35.30
2023-01-25T13:56:28.858Z,33.50
2023-01-25T13:57:28.840Z,33.20
2023-01-25T13:58:28.779Z,33.30
2023-01-25T13:59:28.774Z,34.40
2023-01-25T14:00:28.783Z,32.70
2023-01-25T14:01:28.742Z,34.60
2023-01-25T14:02:28.748Z,34.70
2023-01-25T14:03:28.719Z,34.10
2023-01-25T14:04:28.704Z,32.00
2023-01-25T14:05:28.727Z,32.30
2023-01-25T14:06:28.692Z,31.80
2023-01-25T14:07:28.700Z,33.10
2023-01-25T14:08:28.660Z,33.10
2023-01-25T14:09:28.702Z,33.80
2023-01-25T14:10:28.661Z,31.80
2023-01-25T14:11:28.644Z,32.70
2023-01-25T14:12:28.644Z,32.30
2023-01-25T14:13:28.607Z,33.70
2023-01-25T14:14:28.583Z,32.80
2023-01-25T14:15:28.596Z,34.10
2023-01-25T14:16:28.600Z,33.50
2023-01-25T14:17:28.563Z,34.50
2023-01-25T14:18:28.549Z,33.90
2023-01-25T14:19:28.511Z,34.70
2023-01-25T14:20:28.504Z,35.30
2023-01-25T14:21:28.491Z,34.70
2023-01-25T14:22:28.479Z,34.10
2023-01-25T14:23:28.491Z,33.30
2023-01-25T14:24:28.454Z,33.30
2023-01-25T14:25:28.483Z,32.40
2023-01-25T14:26:28.429Z,31.90
2023-01-25T14:27:28.413Z,32.50
2023-01-25T14:28:28.408Z,32.80
2023-01-25T14:29:33.113Z,33.70
2023-01-25T14:30:29.464Z,33.60
2023-01-25T14:31:28.407Z,34.50
2023-01-25T14:32:28.347Z,33.40
2023-01-25T14:33:28.341Z,33.20
2023-01-25T14:34:28.335Z,33.00
2023-01-25T14:35:42.547Z,34.30
2023-01-25T14:36:29.331Z,33.30
2023-01-25T14:37:28.284Z,33.70
2023-01-25T14:38:28.309Z,33.40
2023-01-25T14:39:28.263Z,32.30
2023-01-25T14:40:28.287Z,33.20
2023-01-25T14:41:28.257Z,33.40
2023-01-25T14:42:28.226Z,33.90
2023-01-25T14:43:28.217Z,35.20
2023-01-25T14:44:28.206Z,35.60
2023-01-25T14:45:28.216Z,35.50
2023-01-25T14:46:28.169Z,35.60
2023-01-25T14:47:28.177Z,36.10
2023-01-25T14:48:28.139Z,34.80
2023-01-25T14:49:28.139Z,35.40
2023-01-25T14:50:28.117Z,35.10
2023-01-25T14:51:28.152Z,35.70
2023-01-25T14:52:28.093Z,37.00
2023-01-25T14:53:28.118Z,36.20
2023-01-25T14:54:28.074Z,33.90
2023-01-25T14:55:30.777Z,36.60
2023-01-25T14:56:28.058Z,34.50
2023-01-25T14:57:28.061Z,34.90
2023-01-25T14:58:28.029Z,34.90
2023-01-25T14:59:28.023Z,34.00
2023-01-25T15:00:27.990Z,35.70
2023-01-25T15:01:28.056Z,36.90
2023-01-25T15:02:28.029Z,35.20
2023-01-25T15:03:27.970Z,36.70
2023-01-25T15:04:27.946Z,36.70
2023-01-25T15:05:27.943Z,35.80
2023-01-25T15:06:27.914Z,37.50
2023-01-25T15:07:27.918Z,37.20
2023-01-25T15:08:27.888Z,38.00
2023-01-25T15:09:27.873Z,38.70
2023-01-25T15:10:27.883Z,37.00
2023-01-25T15:11:27.863Z,38.60
2023-01-25T15:12:27.839Z,38.20
2023-01-25T15:13:27.830Z,36.70
2023-01-25T15:14:27.803Z,36.50
2023-01-25T15:15:27.796Z,35.90
2023-01-25T15:16:27.787Z,37.90
2023-01-25T15:17:27.791Z,37.70
2023-01-25T15:18:27.777Z,37.60
2023-01-25T15:19:35.260Z,39.00
2023-01-25T15:20:28.897Z,38.00
2023-01-25T15:21:27.719Z,39.50
2023-01-25T15:22:27.717Z,40.50
2023-01-25T15:23:27.722Z,39.90
2023-01-25T15:24:27.747Z,38.70
2023-01-25T15:25:27.910Z,40.70
2023-01-25T15:26:27.714Z,39.90
2023-01-25T15:27:27.715Z,40.50
2023-01-25T15:28:27.624Z,39.60
2023-01-25T15:29:27.633Z,38.40
2023-01-25T15:30:27.589Z,38.30
2023-01-25T15:31:27.726Z,39.00
2023-01-25T15:32:27.579Z,39.30
2023-01-25T15:33:27.547Z,37.60
2023-01-25T15:34:27.560Z,39.10
2023-01-25T15:35:27.739Z,39.30
2023-01-25T15:36:28.291Z,40.30
2023-01-25T15:37:27.532Z,39.40
2023-01-25T15:38:27.502Z,41.90
2023-01-25T15:39:27.468Z,39.50
2023-01-25T15:40:27.482Z,40.00
2023-01-25T15:41:27.456Z,40.40
2023-01-25T15:42:27.459Z,40.90
2023-01-25T15:43:27.445Z,39.40
2023-01-25T15:44:27.422Z,40.60
2023-01-25T15:45:27.400Z,39.60
2023-01-25T15:46:27.414Z,39.40
2023-01-25T15:47:27.369Z,39.40
2023-01-25T15:48:27.381Z,39.50
2023-01-25T15:49:27.351Z,39.80
2023-01-25T15:50:27.345Z,40.70
2023-01-25T15:51:27.340Z,40.90
2023-01-25T15:52:27.324Z,40.00
2023-01-25T15:53:27.303Z,40.80
2023-01-25T15:54:27.289Z,42.00
2023-01-25T15:55:27.301Z,39.90
2023-01-25T15:56:27.293Z,40.90
2023-01-25T15:57:27.283Z,41.70
2023-01-25T15:58:27.250Z,41.70
2023-01-25T15:59:27.304Z,41.00
2023-01-25T16:00:27.223Z,41.70
2023-01-25T16:01:27.540Z,41.50
2023-01-25T16:02:27.211Z,41.80
2023-01-25T16:03:27.194Z,41.50
2023-01-25T16:04:27.173Z,40.50
2023-01-25T16:05:27.145Z,43.10
2023-01-25T16:06:27.154Z,41.30
2023-01-25T16:07:27.122Z,39.80
2023-01-25T16:08:27.135Z,42.00
2023-01-25T16:09:27.094Z,40.70
2023-01-25T16:10:27.080Z,39.50
2023-01-25T16:11:27.073Z,37.90
2023-01-25T16:12:27.072Z,40.00
2023-01-25T16:13:27.040Z,40.10
2023-01-25T16:14:27.053Z,40.40
2023-01-25T16:15:27.012Z,40.90
2023-01-25T16:16:27.143Z,39.40
2023-01-25T16:17:27.006Z,40.50
2023-01-25T16:18:27.010Z,38.30
2023-01-25T16:19:26.968Z,38.20
2023-01-25T16:20:26.963Z,37.60
2023-01-25T16:21:26.936Z,38.60
2023-01-25T16:22:26.955Z,38.20
2023-01-25T16:23:26.921Z,37.70
2023-01-25T16:24:26.950Z,36.90
2023-01-25T16:25:26.900Z,36.80
2023-01-25T16:26:26.875Z,34.70
2023-01-25T16:27:26.856Z,36.30
2023-01-25T16:28:26.848Z,36.80
2023-01-25T16:29:26.853Z,35.70
2023-01-25T16:30:26.893Z,35.60
2023-01-25T16:31:32.776Z,36.50
2023-01-25T16:32:27.809Z,36.90
2023-01-25T16:33:26.785Z,35.30
2023-01-25T16:34:26.758Z,37.40
2023-01-25T16:35:26.753Z,38.70
2023-01-25T16:36:26.777Z,37.00
2023-01-25T16:37:26.761Z,36.00
2023-01-25T16:38:26.726Z,37.60
2023-01-25T16:39:26.711Z,38.10
2023-01-25T16:40:26.695Z,37.70
2023-01-25T16:41:26.679Z,36.20
2023-01-25T16:42:26.754Z,37.40
2023-01-25T16:43:31.686Z,35.80
2023-01-25T16:44:27.657Z,36.10
2023-01-25T16:45:26.625Z,35.60
2023-01-25T16:46:26.671Z,36.40
2023-01-25T16:47:27.921Z,37.70
2023-01-25T16:48:26.615Z,36.10
2023-01-25T16:49:26.597Z,37.00
2023-01-25T16:50:26.560Z,37.10
2023-01-25T16:51:26.557Z,37.50
2023-01-25T16:52:26.528Z,36.90
2023-01-25T16:53:26.526Z,37.70
2023-01-25T16:54:26.543Z,36.40
2023-01-25T16:55:26.535Z,36.20
2023-01-25T16:56:26.502Z,35.30
2023-01-25T16:57:26.467Z,36.80
2023-01-25T16:58:26.469Z,40.20
2023-01-25T16:59:26.471Z,41.20
2023-01-25T17:00:26.466Z,39.30
2023-01-25T17:01:26.462Z,41.00
2023-01-25T17:02:26.421Z,39.10
2023-01-25T17:03:26.431Z,37.90
2023-01-25T17:04:26.405Z,38.70
2023-01-25T17:05:26.359Z,38.50
2023-01-25T17:06:26.365Z,37.20
2023-01-25T17:07:26.343Z,38.00
2023-01-25T17:08:26.330Z,36.80
2023-01-25T17:09:26.362Z,37.40
2023-01-25T17:10:26.347Z,34.30
2023-01-25T17:11:26.339Z,35.40
2023-01-25T17:12:26.290Z,36.10
2023-01-25T17:13:26.280Z,37.50
2023-01-25T17:14:26.284Z,35.70
2023-01-25T17:15:26.251Z,35.30
2023-01-25T17:16:26.239Z,34.40
2023-01-25T17:17:26.231Z,34.10
2023-01-25T17:18:26.209Z,35.10
2023-01-25T17:19:26.202Z,34.40
2023-01-25T17:20:26.192Z,35.30
2023-01-25T17:21:26.197Z,36.50
2023-01-25T17:22:26.160Z,35.90
2023-01-25T17:23:26.147Z,35.80
2023-01-25T17:24:26.199Z,38.50
2023-01-25T17:25:26.123Z,37.70
2023-01-25T17:26:26.096Z,37.70
2023-01-25T17:27:26.096Z,36.30
2023-01-25T17:28:26.117Z,36.20
2023-01-25T17:29:26.076Z,37.60
2023-01-25T17:30:26.113Z,35.90
2023-01-25T17:31:26.162Z,34.60
2023-01-25T17:32:26.037Z,36.40
2023-01-25T17:33:26.016Z,34.50
2023-01-25T17:34:26.010Z,34.20
2023-01-25T17:35:26.030Z,32.40
2023-01-25T17:36:29.227Z,33.20
2023-01-25T17:37:25.988Z,33.00
2023-01-25T17:38:25.946Z,33.20
2023-01-25T17:39:25.946Z,32.70
2023-01-25T17:40:25.950Z,32.80
2023-01-25T17:41:25.931Z,34.30
2023-01-25T17:42:25.904Z,32.90
2023-01-25T17:43:25.884Z,33.40
2023-01-25T17:44:25.881Z,33.50
2023-01-25T17:45:25.859Z,34.60
2023-01-25T17:46:25.904Z,32.40
2023-01-25T17:47:25.842Z,34.20
2023-01-25T17:48:25.820Z,34.50
2023-01-25T17:49:25.828Z,34.60
2023-01-25T17:50:32.495Z,32.80
2023-01-25T17:51:25.793Z,35.50
2023-01-25T17:52:25.780Z,34.50
2023-01-25T17:53:25.755Z,33.70
2023-01-25T17:54:25.745Z,33.30
2023-01-25T17:55:25.737Z,34.80
2023-01-25T17:56:25.766Z,35.50
2023-01-25T17:57:25.706Z,33.50
2023-01-25T17:58:25.694Z,34.90
2023-01-25T17:59:25.687Z,34.30
2023-01-25T18:00:25.658Z,36.70
2023-01-25T18:01:25.699Z,34.30
2023-01-25T18:02:25.690Z,35.00
2023-01-25T18:03:25.638Z,35.00
2023-01-25T18:04:25.617Z,37.20
2023-01-25T18:05:25.607Z,35.80
2023-01-25T18:06:25.591Z,36.80
2023-01-25T18:07:25.576Z,36.10
2023-01-25T18:08:25.569Z,35.70
2023-01-25T18:09:25.576Z,35.90
2023-01-25T18:10:25.547Z,35.30
2023-01-25T18:11:25.527Z,35.00
2023-01-25T18:12:25.497Z,37.00
2023-01-25T18:13:25.491Z,36.80
2023-01-25T18:14:25.480Z,36.60
2023-01-25T18:15:25.479Z,36.30
2023-01-25T18:16:25.469Z,37.10
2023-01-25T18:17:25.459Z,36.30
2023-01-25T18:18:25.419Z,38.70
2023-01-25T18:19:25.409Z,38.80
2023-01-25T18:20:25.426Z,38.10
2023-01-25T18:21:25.404Z,37.90
2023-01-25T18:22:25.389Z,37.70
2023-01-25T18:23:25.367Z,37.70
2023-01-25T18:24:25.466Z,38.80
2023-01-25T18:25:25.472Z,38.20
2023-01-25T18:26:25.341Z,40.20
2023-01-25T18:27:25.321Z,39.00
2023-01-25T18:28:25.310Z,37.10
2023-01-25T18:29:25.310Z,37.40
2023-01-25T18:30:25.277Z,38.60
2023-01-25T18:31:25.400Z,37.90
2023-01-25T18:32:25.243Z,36.90
2023-01-25T18:33:25.234Z,37.70
2023-01-25T18:34:25.218Z,37.90
2023-01-25T18:35:25.205Z,36.90
2023-01-25T18:36:25.217Z,37.40
2023-01-25T18:37:25.209Z,37.50
2023-01-25T18:38:25.175Z,37.80
2023-01-25T18:39:25.161Z,41.30
2023-01-25T18:40:25.158Z,41.70
2023-01-25T18:41:25.145Z,40.80
2023-01-25T18:42:25.132Z,41.10
2023-01-25T18:43:25.128Z,41.70
2023-01-25T18:44:25.101Z,40.80
2023-01-25T18:45:25.097Z,42.00
2023-01-25T18:46:25.084Z,39.10
2023-01-25T18:47:25.056Z,40.90
2023-01-25T18:48:25.246Z,39.90
2023-01-25T18:49:25.030Z,41.20
2023-01-25T18:50:25.014Z,42.40
2023-01-25T18:51:24.993Z,40.30
2023-01-25T18:52:25.001Z,41.20
2023-01-25T18:53:24.980Z,40.50
2023-01-25T18:54:24.977Z,43.10
2023-01-25T18:55:24.947Z,41.30
2023-01-25T18:56:24.959Z,42.20
2023-01-25T18:57:24.929Z,41.90
2023-01-25T18:58:24.935Z,43.40
2023-01-25T18:59:24.924Z,43.20
2023-01-25T19:00:24.907Z,42.60
2023-01-25T19:01:24.920Z,41.00
2023-01-25T19:02:24.900Z,41.20
2023-01-25T19:03:24.935Z,41.90
2023-01-25T19:04:24.854Z,40.30
2023-01-25T19:05:24.827Z,40.70
2023-01-25T19:06:24.808Z,41.20
2023-01-25T19:07:24.805Z,42.90
2023-01-25T19:08:24.781Z,42.70
2023-01-25T19:09:24.803Z,41.90
2023-01-25T19:10:24.774Z,43.40
2023-01-25T19:11:24.767Z,43.20
2023-01-25T19:12:24.732Z,41.50
2023-01-25T19:13:24.737Z,43.60
2023-01-25T19:14:24.700Z,43.80
2023-01-25T19:15:24.732Z,44.10
2023-01-25T19:16:24.733Z,43.00
2023-01-25T19:17:24.723Z,40.70
2023-01-25T19:18:24.679Z,41.70
2023-01-25T19:19:24.642Z,42.70
2023-01-25T19:20:24.625Z,42.80
2023-01-25T19:21:24.642Z,41.90
2023-01-25T19:22:24.609Z,42.60
2023-01-25T19:23:24.613Z,42.80
2023-01-25T19:24:24.636Z,43.80
2023-01-25T19:25:24.550Z,42.70
2023-01-25T19:26:24.627Z,42.30
2023-01-25T19:27:24.562Z,41.30
2023-01-25T19:28:24.523Z,41.20
2023-01-25T19:29:24.532Z,42.00
2023-01-25T19:30:24.527Z,41.60
2023-01-25T19:31:33.399Z,42.80
2023-01-25T19:32:24.527Z,43.20
2023-01-25T19:33:24.462Z,41.80
2023-01-25T19:34:24.518Z,42.00
2023-01-25T19:35:27.318Z,42.90
2023-01-25T19:36:24.496Z,41.00
2023-01-25T19:37:24.426Z,42.40
2023-01-25T19:38:24.439Z,39.60
2023-01-25T19:39:24.409Z,40.10
2023-01-25T19:40:24.407Z,40.40
2023-01-25T19:41:24.365Z,40.90
2023-01-25T19:42:24.410Z,39.70
2023-01-25T19:43:33.999Z,39.70
2023-01-25T19:44:24.663Z,40.10
2023-01-25T19:45:24.807Z,41.30
2023-01-25T19:46:24.361Z,41.10
2023-01-25T19:47:24.397Z,42.00
2023-01-25T19:48:24.369Z,40.50
2023-01-25T19:49:24.534Z,42.80
2023-01-25T19:50:24.388Z,42.30
2023-01-25T19:51:24.272Z,43.00
2023-01-25T19:52:24.279Z,43.30
2023-01-25T19:53:24.213Z,42.90
2023-01-25T19:54:24.340Z,43.50
2023-01-25T19:55:24.341Z,43.10
2023-01-25T19:56:32.737Z,41.80
2023-01-25T19:57:24.280Z,40.80
2023-01-25T19:58:24.187Z,40.50
2023-01-25T19:59:24.187Z,43.10
2023-01-25T20:00:24.262Z,43.90
2023-01-25T20:01:24.236Z,43.70
2023-01-25T20:02:24.134Z,43.00
2023-01-25T20:03:24.122Z,44.50
2023-01-25T20:04:24.138Z,42.10
2023-01-25T20:05:24.073Z,42.00
2023-01-25T20:06:24.070Z,42.50
2023-01-25T20:07:24.077Z,41.90
2023-01-25T20:08:24.023Z,41.40
2023-01-25T20:09:23.993Z,42.30
2023-01-25T20:10:28.538Z,41.80
2023-01-25T20:11:24.005Z,41.40
2023-01-25T20:12:23.964Z,40.30
2023-01-25T20:13:24.030Z,39.50
2023-01-25T20:14:23.960Z,40.60
2023-01-25T20:15:23.937Z,40.60
2023-01-25T20:16:24.035Z,39.90
2023-01-25T20:17:23.934Z,42.40
2023-01-25T20:18:23.888Z,40.60
2023-01-25T20:19:23.909Z,41.00